Time;durP1;ratioP1;P1;durP2;ratioP2;P2;SDS_P1;SDS_P2;PMS_P1;PMS_P2;Temp;Humidity;BMP_temperature;BMP_pressure;BME280_temperature;BME280_humidity;BME280_pressure;Samples;Min_cycle;Max_cycle;Signal;HPM_P1;HPM_P2
2022/02/18 00:00:38;;;;;;;26.70;24.20;;;9.80;67.60;;;;;;5072247;28;20996;-72
2022/02/18 00:03:05;;;;;;;26.93;24.50;;;9.70;67.90;;;;;;5072465;28;20482;-72
2022/02/18 00:05:33;;;;;;;27.20;24.60;;;9.80;67.80;;;;;;5072426;28;20542;-72
2022/02/18 00:08:00;;;;;;;31.53;24.30;;;9.80;67.70;;;;;;5072495;28;20454;-72
2022/02/18 00:10:27;;;;;;;26.63;24.07;;;9.70;67.90;;;;;;5072311;28;20496;-72
2022/02/18 00:12:54;;;;;;;27.27;24.50;;;9.60;68.40;;;;;;5072474;28;21012;-72
2022/02/18 00:15:21;;;;;;;30.90;25.47;;;9.50;68.70;;;;;;5072363;28;20454;-72
2022/02/18 00:17:48;;;;;;;27.30;24.60;;;9.40;69.00;;;;;;5072111;28;20458;-72
2022/02/18 00:20:15;;;;;;;26.63;24.20;;;9.40;68.90;;;;;;5071958;28;21139;-72
2022/02/18 00:22:43;;;;;;;26.17;23.83;;;9.50;68.80;;;;;;5072533;28;20502;-72
2022/02/18 00:25:10;;;;;;;27.43;24.60;;;9.40;68.80;;;;;;5072056;28;20450;-72
2022/02/18 00:27:38;;;;;;;28.37;25.33;;;9.60;68.50;;;;;;5072299;28;20462;-72
2022/02/18 00:30:06;;;;;;;27.00;24.50;;;9.60;68.40;;;;;;5071907;28;20454;-72
2022/02/18 00:32:33;;;;;;;28.20;25.17;;;9.50;68.50;;;;;;5072132;28;20833;-72
2022/02/18 00:35:00;;;;;;;26.27;24.00;;;9.50;68.90;;;;;;5072096;28;20533;-72
2022/02/18 00:37:27;;;;;;;28.23;24.70;;;9.50;68.80;;;;;;5072105;28;20462;-72
2022/02/18 00:39:56;;;;;;;28.80;25.90;;;9.50;68.80;;;;;;5071873;28;20676;-72
2022/02/18 00:42:23;;;;;;;26.40;24.00;;;9.60;68.10;;;;;;5072207;28;20489;-72
2022/02/18 00:44:50;;;;;;;26.17;24.00;;;9.70;68.00;;;;;;5071957;28;20467;-72
2022/02/18 00:47:17;;;;;;;26.50;23.90;;;9.70;67.80;;;;;;5073233;28;20546;-72
2022/02/18 00:49:44;;;;;;;26.53;24.03;;;9.70;67.90;;;;;;5076029;28;20532;-72
2022/02/18 00:52:11;;;;;;;26.10;23.40;;;9.70;67.80;;;;;;5076165;28;20467;-72
2022/02/18 00:54:38;;;;;;;28.47;23.93;;;9.80;67.50;;;;;;5075908;28;20821;-72
2022/02/18 00:57:06;;;;;;;28.60;23.90;;;9.80;67.50;;;;;;5075944;28;20538;-72
2022/02/18 00:59:33;;;;;;;30.10;25.50;;;9.80;67.40;;;;;;5075868;28;20454;-73
2022/02/18 01:02:00;;;;;;;25.53;23.23;;;9.80;67.20;;;;;;5075799;28;20518;-72
2022/02/18 01:04:27;;;;;;;26.43;23.67;;;9.80;67.30;;;;;;5075781;28;20876;-72
2022/02/18 01:06:54;;;;;;;29.70;25.00;;;9.90;67.10;;;;;;5075786;28;20542;-72
2022/02/18 01:09:21;;;;;;;26.33;24.03;;;9.80;67.20;;;;;;5075419;28;20454;-72
2022/02/18 01:11:47;;;;;;;27.70;24.20;;;9.80;67.10;;;;;;5075554;28;21063;-72
2022/02/18 01:14:16;;;;;;;26.90;23.90;;;10.00;66.70;;;;;;5075509;28;20460;-72
2022/02/18 01:16:43;;;;;;;27.63;24.90;;;9.90;66.70;;;;;;5075624;28;20451;-72
2022/02/18 01:19:10;;;;;;;26.80;23.57;;;9.90;66.70;;;;;;5075388;28;20448;-72
2022/02/18 01:21:37;;;;;;;26.27;23.53;;;9.90;66.90;;;;;;5075565;28;20489;-72
2022/02/18 01:24:05;;;;;;;26.47;24.07;;;9.90;67.00;;;;;;5075385;28;20465;-72
2022/02/18 01:26:32;;;;;;;26.50;24.10;;;9.90;67.00;;;;;;5075146;28;20913;-72
2022/02/18 01:28:59;;;;;;;28.23;24.20;;;9.90;67.10;;;;;;5075322;28;20527;-72
2022/02/18 01:31:27;;;;;;;26.97;24.27;;;9.90;67.20;;;;;;5075201;28;20478;-72
2022/02/18 01:33:55;;;;;;;26.03;23.47;;;9.90;67.20;;;;;;5075435;28;20453;-72
2022/02/18 01:36:23;;;;;;;27.00;24.40;;;10.00;67.00;;;;;;5075224;28;20450;-72
2022/02/18 01:38:50;;;;;;;26.60;23.87;;;10.00;66.90;;;;;;5075318;28;20447;-72
2022/02/18 01:41:18;;;;;;;25.60;22.90;;;10.00;66.90;;;;;;5075036;28;20533;-72
2022/02/18 01:43:50;;;;;;;26.60;24.30;;;9.90;66.90;;;;;;5075143;28;21132;-72
2022/02/18 01:46:17;;;;;;;25.93;23.20;;;9.90;67.40;;;;;;5074913;28;20546;-73
2022/02/18 01:48:45;;;;;;;28.60;24.90;;;9.90;68.80;;;;;;5075042;28;20459;-72
2022/02/18 01:51:13;;;;;;;26.43;24.13;;;9.90;68.30;;;;;;5074797;28;20558;-72
2022/02/18 01:53:40;;;;;;;25.53;23.10;;;9.90;68.20;;;;;;5075078;28;20487;-72
2022/02/18 01:56:07;;;;;;;26.10;23.57;;;9.80;68.40;;;;;;5075076;28;20477;-72
2022/02/18 01:58:34;;;;;;;25.40;23.20;;;9.80;68.20;;;;;;5074128;28;20461;-72
2022/02/18 02:01:01;;;;;;;26.03;23.67;;;9.80;68.20;;;;;;5074540;28;20506;-72
2022/02/18 02:03:28;;;;;;;25.93;23.40;;;9.80;68.60;;;;;;5074885;28;20881;-72
2022/02/18 02:05:59;;;;;;;29.70;23.27;;;9.70;69.30;;;;;;5074815;28;20486;-72
2022/02/18 02:08:27;;;;;;;25.57;23.47;;;9.80;69.10;;;;;;5074614;28;20456;-72
2022/02/18 02:10:55;;;;;;;28.37;24.93;;;9.90;68.10;;;;;;5074570;28;20528;-72
2022/02/18 02:13:30;;;;;;;24.67;22.70;;;9.90;68.00;;;;;;5074567;28;21020;-72
2022/02/18 02:15:57;;;;;;;24.47;22.53;;;10.00;67.70;;;;;;5074617;28;20450;-72
2022/02/18 02:18:24;;;;;;;24.90;22.50;;;10.00;68.10;;;;;;5074396;28;20458;-72
2022/02/18 02:20:52;;;;;;;25.77;23.27;;;9.90;68.90;;;;;;5074309;28;20559;-72
2022/02/18 02:23:20;;;;;;;29.33;23.87;;;10.00;68.30;;;;;;5074388;28;20863;-72
2022/02/18 02:25:47;;;;;;;25.13;22.93;;;10.00;68.40;;;;;;5074027;28;20793;-72
2022/02/18 02:28:15;;;;;;;25.83;23.37;;;10.00;67.80;;;;;;5074469;28;20504;-72
2022/02/18 02:30:42;;;;;;;28.47;23.83;;;10.00;68.50;;;;;;5073951;28;20477;-72
2022/02/18 02:33:09;;;;;;;26.33;23.90;;;9.90;68.40;;;;;;5074282;28;20451;-72
2022/02/18 02:35:36;;;;;;;25.70;23.50;;;10.00;68.20;;;;;;5074191;28;20956;-72
2022/02/18 02:38:04;;;;;;;25.57;23.13;;;9.90;68.50;;;;;;5074150;28;20447;-72
2022/02/18 02:40:32;;;;;;;26.43;23.77;;;9.90;68.70;;;;;;5074087;28;20467;-72
2022/02/18 02:42:59;;;;;;;25.73;23.27;;;10.00;68.00;;;;;;5073957;28;20476;-72
2022/02/18 02:45:26;;;;;;;27.10;23.63;;;10.00;68.00;;;;;;5074213;28;20458;-72
2022/02/18 02:47:53;;;;;;;26.17;23.77;;;10.10;67.80;;;;;;5074004;28;20534;-72
2022/02/18 02:50:20;;;;;;;26.07;23.40;;;9.90;68.30;;;;;;5073794;28;20537;-72
2022/02/18 02:52:48;;;;;;;25.93;23.47;;;9.90;68.70;;;;;;5073844;28;20449;-72
2022/02/18 02:55:15;;;;;;;24.80;22.77;;;9.80;68.60;;;;;;5074038;28;20533;-72
2022/02/18 02:57:44;;;;;;;25.70;23.27;;;9.80;69.00;;;;;;5073825;28;20538;-73
2022/02/18 03:00:13;;;;;;;25.27;23.10;;;9.60;69.60;;;;;;5073608;28;20451;-72
2022/02/18 03:02:40;;;;;;;26.57;24.20;;;9.60;70.00;;;;;;5073830;28;20482;-72
2022/02/18 03:05:08;;;;;;;24.92;22.80;;;9.60;70.00;;;;;;5073684;28;20964;-72
2022/02/18 03:07:35;;;;;;;25.53;23.17;;;9.60;70.10;;;;;;5073658;28;20243;-72
2022/02/18 03:10:02;;;;;;;26.73;23.10;;;9.60;70.10;;;;;;5073246;28;20534;-72
2022/02/18 03:12:29;;;;;;;26.53;23.83;;;9.50;70.50;;;;;;5073529;28;20987;-72
2022/02/18 03:14:59;;;;;;;25.23;22.90;;;9.40;70.90;;;;;;5073346;28;20436;-72
2022/02/18 03:17:26;;;;;;;25.80;22.93;;;9.40;71.00;;;;;;5073422;28;20456;-72
2022/02/18 03:19:53;;;;;;;26.47;23.43;;;9.40;71.40;;;;;;5073244;28;20490;-72
2022/02/18 03:22:20;;;;;;;25.07;23.20;;;9.30;71.30;;;;;;5073286;28;20557;-72
2022/02/18 03:24:47;;;;;;;24.57;22.20;;;9.20;71.50;;;;;;5072999;28;20533;-72
2022/02/18 03:27:14;;;;;;;24.73;22.58;;;9.30;71.50;;;;;;5073229;28;20567;-72
2022/02/18 03:29:40;;;;;;;25.80;23.20;;;9.20;71.60;;;;;;5073026;28;20254;-72
2022/02/18 03:32:09;;;;;;;25.55;23.40;;;9.20;72.00;;;;;;5072943;28;20697;-73
2022/02/18 03:34:36;;;;;;;25.70;23.25;;;9.20;72.20;;;;;;5073187;28;20196;-72
2022/02/18 03:37:05;;;;;;;25.50;23.38;;;9.10;72.30;;;;;;5072961;28;20583;-72
2022/02/18 03:39:32;;;;;;;25.17;22.77;;;9.00;72.80;;;;;;5073046;28;20199;-72
2022/02/18 03:41:58;;;;;;;25.40;22.90;;;9.00;72.90;;;;;;5072973;28;20220;-72
2022/02/18 03:44:26;;;;;;;24.90;22.77;;;9.00;73.10;;;;;;5072642;28;20304;-72
2022/02/18 03:46:53;;;;;;;25.33;22.80;;;9.00;73.10;;;;;;5072977;28;20295;-72
2022/02/18 03:49:21;;;;;;;29.02;26.05;;;9.10;72.80;;;;;;5072675;28;20196;-72
2022/02/18 03:51:48;;;;;;;26.42;23.55;;;9.20;72.70;;;;;;5072866;28;20225;-72
2022/02/18 03:54:15;;;;;;;25.77;23.55;;;9.30;72.50;;;;;;5072734;28;20201;-72
2022/02/18 03:56:42;;;;;;;24.40;22.52;;;9.30;72.40;;;;;;5072711;28;20290;-72
2022/02/18 03:59:09;;;;;;;24.48;22.17;;;9.20;72.60;;;;;;5072415;28;20614;-72
2022/02/18 04:01:36;;;;;;;25.35;22.95;;;9.10;72.80;;;;;;5072903;28;20550;-72
2022/02/18 04:04:03;;;;;;;24.08;22.02;;;9.10;73.40;;;;;;5072591;28;20223;-72
2022/02/18 04:06:31;;;;;;;25.63;23.40;;;9.10;74.10;;;;;;5072611;28;20192;-72
2022/02/18 04:08:58;;;;;;;28.25;24.83;;;9.10;73.40;;;;;;5072546;28;20905;-72
2022/02/18 04:11:25;;;;;;;25.50;23.43;;;9.10;73.30;;;;;;5072333;28;20227;-72
2022/02/18 04:13:52;;;;;;;26.40;24.35;;;9.10;73.30;;;;;;5072611;28;20447;-72
2022/02/18 04:16:18;;;;;;;24.88;22.33;;;9.10;73.40;;;;;;5072442;28;20211;-72
2022/02/18 04:18:45;;;;;;;29.88;27.20;;;9.20;73.20;;;;;;5072427;28;20680;-72
2022/02/18 04:21:12;;;;;;;25.40;22.77;;;9.20;73.30;;;;;;5072094;28;20217;-72
2022/02/18 04:23:40;;;;;;;30.50;27.27;;;9.10;74.00;;;;;;5071832;28;20251;-72
2022/02/18 04:26:07;;;;;;;25.50;23.00;;;9.10;73.90;;;;;;5072038;28;20200;-72
2022/02/18 04:28:34;;;;;;;25.47;22.87;;;9.10;73.90;;;;;;5072480;28;20463;-72
2022/02/18 04:31:01;;;;;;;27.27;24.50;;;9.00;74.00;;;;;;5072019;28;20560;-72
2022/02/18 04:33:28;;;;;;;26.60;24.03;;;9.10;74.00;;;;;;5072337;28;20284;-72
2022/02/18 04:35:55;;;;;;;25.65;23.10;;;9.10;74.20;;;;;;5072368;28;20541;-72
2022/02/18 04:38:22;;;;;;;26.83;24.70;;;9.00;75.10;;;;;;5072170;28;20196;-72
2022/02/18 04:40:50;;;;;;;29.70;26.75;;;9.10;74.50;;;;;;5072007;28;20284;-72
2022/02/18 04:43:17;;;;;;;25.40;22.80;;;9.10;74.40;;;;;;5072195;28;20223;-72
2022/02/18 04:45:44;;;;;;;27.73;25.13;;;9.30;73.90;;;;;;5072170;28;20209;-72
2022/02/18 04:48:11;;;;;;;25.17;23.08;;;9.20;74.10;;;;;;5072315;28;20192;-72
2022/02/18 04:50:38;;;;;;;25.52;23.20;;;9.10;74.20;;;;;;5071974;28;20363;-72
2022/02/18 04:53:05;;;;;;;26.95;24.30;;;9.10;74.50;;;;;;5072176;28;20670;-72
2022/02/18 04:55:32;;;;;;;28.90;26.13;;;9.10;75.20;;;;;;5072055;28;20200;-72
2022/02/18 04:58:00;;;;;;;26.48;23.58;;;9.20;74.70;;;;;;5072027;28;20305;-72
2022/02/18 05:00:27;;;;;;;25.35;23.27;;;9.10;74.60;;;;;;5072032;28;20197;-72
2022/02/18 05:02:54;;;;;;;26.40;24.17;;;9.10;74.70;;;;;;5072244;28;20220;-72
2022/02/18 05:05:21;;;;;;;25.73;23.57;;;9.10;74.90;;;;;;5071951;28;20461;-72
2022/02/18 05:07:48;;;;;;;27.27;24.90;;;9.10;75.00;;;;;;5072011;28;20568;-72
2022/02/18 05:10:15;;;;;;;24.67;22.50;;;9.10;75.50;;;;;;5071698;28;20485;-72
2022/02/18 05:12:41;;;;;;;28.90;26.17;;;9.20;75.50;;;;;;5071992;28;20548;-72
2022/02/18 05:15:10;;;;;;;26.23;24.03;;;9.20;75.00;;;;;;5072105;28;20283;-72
2022/02/18 05:17:37;;;;;;;27.88;25.48;;;9.30;74.80;;;;;;5071826;28;20489;-72
2022/02/18 05:20:05;;;;;;;25.50;23.48;;;9.30;74.50;;;;;;5071692;28;20194;-71
2022/02/18 05:22:32;;;;;;;25.10;22.67;;;9.30;74.90;;;;;;5071989;28;20224;-72
2022/02/18 05:25:00;;;;;;;26.13;23.52;;;9.30;75.10;;;;;;5071512;28;20482;-72
2022/02/18 05:27:27;;;;;;;27.70;25.63;;;9.30;74.70;;;;;;5071815;28;20206;-73
2022/02/18 05:29:54;;;;;;;26.07;23.77;;;9.20;74.90;;;;;;5071517;28;20459;-71
2022/02/18 05:32:22;;;;;;;25.37;23.17;;;9.30;75.00;;;;;;5071787;28;20502;-72
2022/02/18 05:34:49;;;;;;;26.07;23.43;;;9.20;75.10;;;;;;5075048;28;20504;-72
2022/02/18 05:37:16;;;;;;;25.13;22.90;;;9.20;75.10;;;;;;5075288;28;20786;-72
2022/02/18 05:39:43;;;;;;;27.20;24.57;;;9.30;75.00;;;;;;5075126;28;20537;-72
2022/02/18 05:42:10;;;;;;;26.30;23.73;;;9.30;74.90;;;;;;5075356;28;20897;-72
2022/02/18 05:44:37;;;;;;;27.60;24.93;;;9.30;76.70;;;;;;5075069;28;20589;-72
2022/02/18 05:47:05;;;;;;;24.70;22.60;;;9.30;75.70;;;;;;5075272;28;20455;-72
2022/02/18 05:49:33;;;;;;;25.73;23.50;;;9.40;74.90;;;;;;5074960;28;20452;-72
2022/02/18 05:52:00;;;;;;;25.70;23.53;;;9.40;74.50;;;;;;5075096;28;20473;-72
2022/02/18 05:54:27;;;;;;;27.07;24.83;;;9.40;74.50;;;;;;5074931;28;20450;-72
2022/02/18 05:56:54;;;;;;;25.07;22.60;;;9.40;75.10;;;;;;5074997;28;20954;-72
2022/02/18 05:59:21;;;;;;;25.70;23.63;;;9.60;73.80;;;;;;5074806;28;20460;-72
2022/02/18 06:01:48;;;;;;;24.63;22.80;;;9.60;73.50;;;;;;5074930;28;20521;-72
2022/02/18 06:04:15;;;;;;;25.30;23.30;;;9.60;73.70;;;;;;5074861;28;20483;-72
2022/02/18 06:06:45;;;;;;;25.37;23.40;;;9.70;73.30;;;;;;5075003;28;20534;-72
2022/02/18 06:09:12;;;;;;;26.13;23.87;;;9.80;73.00;;;;;;5074620;28;20964;-72
2022/02/18 06:11:39;;;;;;;24.90;22.90;;;9.80;72.80;;;;;;5074682;28;20485;-72
2022/02/18 06:14:07;;;;;;;27.20;24.57;;;9.80;72.80;;;;;;5074644;28;20810;-72
2022/02/18 06:16:34;;;;;;;25.77;23.37;;;9.80;72.90;;;;;;5074749;28;20463;-72
2022/02/18 06:19:03;;;;;;;28.23;25.63;;;9.80;72.80;;;;;;5074573;28;21073;-72
2022/02/18 06:21:30;;;;;;;29.17;26.70;;;9.80;72.70;;;;;;5074422;28;20498;-72
2022/02/18 06:23:59;;;;;;;28.20;25.52;;;9.90;72.30;;;;;;5074395;28;20490;-72
2022/02/18 06:26:26;;;;;;;26.10;23.85;;;9.90;72.20;;;;;;5074086;28;20250;-72
2022/02/18 06:28:53;;;;;;;27.20;24.63;;;9.90;72.10;;;;;;5074506;28;20203;-72
2022/02/18 06:31:20;;;;;;;27.47;24.87;;;9.90;72.30;;;;;;5074158;28;20946;-72
2022/02/18 06:33:47;;;;;;;27.33;25.37;;;9.90;72.20;;;;;;5074429;28;20442;-72
2022/02/18 06:36:14;;;;;;;26.03;23.90;;;9.90;72.20;;;;;;5074297;28;20947;-72
2022/02/18 06:38:42;;;;;;;26.07;23.90;;;9.90;72.20;;;;;;5074345;28;20454;-72
2022/02/18 06:41:11;;;;;;;28.20;25.60;;;9.90;72.30;;;;;;5073919;28;20506;-72
2022/02/18 06:43:38;;;;;;;27.53;25.40;;;9.90;72.20;;;;;;5074148;28;20486;-72
2022/02/18 06:46:05;;;;;;;26.10;23.97;;;10.00;72.20;;;;;;5073636;28;20874;-72
2022/02/18 06:48:36;;;;;;;25.90;23.53;;;9.90;72.40;;;;;;5074112;28;20508;-72
2022/02/18 06:51:03;;;;;;;27.70;25.13;;;9.90;78.10;;;;;;5073768;28;20475;-72
2022/02/18 06:53:29;;;;;;;26.63;24.10;;;10.00;76.30;;;;;;5074112;28;20529;-72
2022/02/18 06:55:56;;;;;;;29.07;26.60;;;10.00;74.20;;;;;;5073726;28;20451;-72
2022/02/18 06:58:25;;;;;;;27.20;24.30;;;10.00;73.30;;;;;;5073841;28;20534;-72
2022/02/18 07:00:52;;;;;;;26.40;24.30;;;10.10;73.00;;;;;;5073409;28;20483;-72
2022/02/18 07:03:19;;;;;;;27.17;24.80;;;10.10;72.70;;;;;;5073372;28;21014;-72
2022/02/18 07:05:48;;;;;;;26.40;24.27;;;10.10;72.60;;;;;;5073601;28;20458;-72
2022/02/18 07:08:15;;;;;;;25.97;23.70;;;10.20;72.40;;;;;;5073452;28;20545;-72
2022/02/18 07:10:42;;;;;;;26.47;24.43;;;10.20;72.30;;;;;;5073308;28;20472;-72
2022/02/18 07:13:09;;;;;;;27.87;25.70;;;10.20;72.30;;;;;;5073678;28;20559;-72
2022/02/18 07:15:37;;;;;;;26.50;24.10;;;10.40;71.60;;;;;;5073495;28;20443;-72
2022/02/18 07:18:05;;;;;;;26.53;24.50;;;10.40;71.70;;;;;;5073333;28;20457;-72
2022/02/18 07:20:32;;;;;;;30.20;24.60;;;10.40;71.90;;;;;;5073123;28;20472;-72
2022/02/18 07:22:59;;;;;;;29.13;26.23;;;10.40;72.00;;;;;;5073194;28;20449;-73
2022/02/18 07:25:27;;;;;;;25.93;24.00;;;10.50;71.90;;;;;;5073030;28;20481;-72
2022/02/18 07:27:54;;;;;;;28.63;25.70;;;10.50;72.30;;;;;;5073271;28;20942;-72
2022/02/18 07:30:21;;;;;;;26.00;23.80;;;10.60;72.40;;;;;;5072713;28;20876;-72
2022/02/18 07:32:49;;;;;;;26.57;24.30;;;10.70;72.10;;;;;;5073328;28;20488;-72
2022/02/18 07:35:16;;;;;;;26.00;23.90;;;10.80;71.60;;;;;;5073031;28;20996;-72
2022/02/18 07:37:44;;;;;;;26.20;23.93;;;10.70;71.70;;;;;;5072930;28;20456;-72
2022/02/18 07:40:13;;;;;;;25.27;23.00;;;10.70;71.90;;;;;;5072782;28;20489;-72
2022/02/18 07:42:42;;;;;;;29.40;26.63;;;10.90;71.60;;;;;;5073096;28;20456;-72
2022/02/18 07:45:09;;;;;;;27.03;24.67;;;10.90;71.80;;;;;;5072617;28;20559;-73
2022/02/18 07:47:36;;;;;;;26.30;23.90;;;10.90;71.90;;;;;;5072844;28;20454;-72
2022/02/18 07:50:07;;;;;;;27.13;25.00;;;11.00;71.70;;;;;;5072829;28;20460;-72
2022/02/18 07:52:36;;;;;;;24.30;22.43;;;11.00;71.60;;;;;;5072844;28;20494;-73
2022/02/18 07:55:03;;;;;;;26.90;25.00;;;11.00;71.90;;;;;;5072711;28;20446;-72
2022/02/18 07:57:30;;;;;;;28.20;26.20;;;11.10;72.00;;;;;;5071932;28;20452;-72
2022/02/18 07:59:57;;;;;;;26.20;23.97;;;11.10;72.20;;;;;;5072510;28;20531;-72
2022/02/18 08:02:24;;;;;;;27.00;25.30;;;11.20;72.30;;;;;;5072340;28;20523;-72
2022/02/18 08:04:51;;;;;;;26.10;24.00;;;11.30;72.30;;;;;;5072511;28;20485;-72
2022/02/18 08:07:19;;;;;;;26.47;24.33;;;11.30;72.40;;;;;;5072604;28;20563;-72
2022/02/18 08:09:46;;;;;;;25.43;23.67;;;11.40;72.30;;;;;;5072613;28;20451;-72
2022/02/18 08:12:13;;;;;;;27.70;25.30;;;11.60;72.20;;;;;;5072631;28;20482;-72
2022/02/18 08:14:40;;;;;;;26.20;24.30;;;11.70;72.10;;;;;;5072626;28;20537;-72
2022/02/18 08:17:09;;;;;;;27.90;25.90;;;11.70;71.90;;;;;;5072620;28;20485;-72
2022/02/18 08:19:36;;;;;;;27.67;25.30;;;11.80;72.10;;;;;;5072345;28;20885;-72
2022/02/18 08:22:04;;;;;;;26.03;23.93;;;12.00;72.00;;;;;;5072686;28;20513;-72
2022/02/18 08:24:33;;;;;;;27.70;25.87;;;12.00;72.20;;;;;;5072338;28;20531;-72
2022/02/18 08:27:01;;;;;;;26.00;23.93;;;12.00;72.20;;;;;;5072164;28;20557;-72
2022/02/18 08:29:28;;;;;;;25.37;23.37;;;12.00;72.50;;;;;;5072203;28;20549;-72
2022/02/18 08:31:56;;;;;;;24.90;23.40;;;12.20;72.30;;;;;;5072253;28;20587;-72
2022/02/18 08:34:23;;;;;;;23.83;22.30;;;12.30;72.20;;;;;;5072307;28;20457;-72
2022/02/18 08:36:50;;;;;;;25.40;23.80;;;12.40;72.10;;;;;;5072320;28;20551;-72
2022/02/18 08:39:18;;;;;;;25.90;24.30;;;12.50;72.10;;;;;;5072094;28;20455;-72
2022/02/18 08:41:46;;;;;;;25.43;23.90;;;12.50;72.10;;;;;;5072269;28;21031;-72
2022/02/18 08:44:14;;;;;;;26.50;24.70;;;12.50;72.30;;;;;;5072050;28;20473;-72
2022/02/18 08:46:41;;;;;;;24.27;22.67;;;12.60;72.50;;;;;;5072152;28;21003;-72
2022/02/18 08:49:09;;;;;;;23.77;22.03;;;12.70;72.60;;;;;;5072189;28;20455;-72
2022/02/18 08:51:36;;;;;;;22.77;21.27;;;12.70;72.60;;;;;;5072191;28;20472;-72
2022/02/18 08:54:03;;;;;;;22.87;21.60;;;12.80;72.60;;;;;;5072208;28;20455;-72
2022/02/18 08:56:30;;;;;;;22.80;21.50;;;12.90;72.60;;;;;;5072094;28;20454;-72
2022/02/18 08:58:59;;;;;;;23.20;21.90;;;13.10;72.10;;;;;;5071966;28;20457;-72
2022/02/18 09:01:26;;;;;;;23.03;21.73;;;13.20;72.30;;;;;;5071997;28;20478;-72
2022/02/18 09:03:53;;;;;;;25.70;24.00;;;13.20;72.00;;;;;;5072069;28;20447;-72
2022/02/18 09:06:20;;;;;;;23.77;22.27;;;13.30;72.10;;;;;;5071899;28;20460;-73
2022/02/18 09:08:47;;;;;;;24.10;22.30;;;13.40;72.10;;;;;;5073889;28;20455;-72
2022/02/18 09:11:15;;;;;;;23.10;21.77;;;13.60;71.60;;;;;;5075656;28;21039;-73
2022/02/18 09:13:42;;;;;;;23.47;21.60;;;13.70;71.20;;;;;;5075942;28;20491;-72
2022/02/18 09:16:10;;;;;;;22.90;21.60;;;13.80;71.00;;;;;;5075733;28;20875;-73
2022/02/18 09:18:37;;;;;;;23.50;22.00;;;13.90;70.80;;;;;;5075771;28;20441;-72
2022/02/18 09:21:04;;;;;;;24.60;23.20;;;14.10;70.30;;;;;;5075355;28;20473;-72
2022/02/18 09:23:31;;;;;;;22.90;21.50;;;14.20;70.20;;;;;;5075605;28;20450;-73
2022/02/18 09:25:58;;;;;;;25.00;23.70;;;14.30;70.10;;;;;;5075284;28;21018;-72
2022/02/18 09:28:27;;;;;;;24.97;23.47;;;14.30;69.90;;;;;;5075534;28;20493;-73
2022/02/18 09:30:55;;;;;;;25.17;23.60;;;14.30;70.50;;;;;;5075191;28;20508;-72
2022/02/18 09:33:25;;;;;;;24.33;23.10;;;14.40;70.10;;;;;;5075630;28;20507;-72
2022/02/18 09:35:52;;;;;;;23.27;22.07;;;14.60;69.70;;;;;;5075503;28;20450;-72
2022/02/18 09:38:19;;;;;;;24.10;22.60;;;14.70;69.70;;;;;;5075170;28;20490;-73
2022/02/18 09:40:47;;;;;;;23.30;22.00;;;14.90;69.30;;;;;;5074969;28;20479;-72
2022/02/18 09:43:16;;;;;;;23.53;22.23;;;15.10;68.70;;;;;;5075377;28;20897;-73
2022/02/18 09:45:45;;;;;;;24.33;22.93;;;15.20;68.40;;;;;;5075050;28;20560;-72
2022/02/18 09:48:13;;;;;;;23.87;22.30;;;15.20;68.30;;;;;;5075181;28;20804;-73
2022/02/18 09:50:42;;;;;;;24.20;22.70;;;15.20;68.40;;;;;;5074794;28;20965;-73
2022/02/18 09:53:09;;;;;;;26.73;25.23;;;15.30;68.30;;;;;;5075041;28;20893;-73
2022/02/18 09:55:38;;;;;;;22.57;21.17;;;15.40;68.10;;;;;;5074957;28;20493;-73
2022/02/18 09:58:06;;;;;;;24.73;23.13;;;15.50;67.80;;;;;;5075113;28;20455;-73
2022/02/18 10:00:33;;;;;;;23.20;21.80;;;15.70;67.60;;;;;;5074880;28;20553;-73
2022/02/18 10:03:00;;;;;;;26.70;24.87;;;15.80;67.20;;;;;;5074852;28;20554;-73
2022/02/18 10:05:27;;;;;;;24.87;23.53;;;15.90;66.90;;;;;;5074799;28;20509;-73
2022/02/18 10:08:07;;;;;;;23.07;21.67;;;16.00;66.60;;;;;;5074897;28;20800;-73
2022/02/18 10:10:35;;;;;;;22.50;21.13;;;16.10;66.60;;;;;;5074608;28;20553;-73
2022/02/18 10:13:03;;;;;;;24.70;23.10;;;16.00;66.70;;;;;;5074653;28;20450;-73
2022/02/18 10:15:41;;;;;;;23.03;21.43;;;16.10;67.10;;;;;;5074763;28;20541;-73
2022/02/18 10:18:09;;;;;;;22.20;21.00;;;16.30;66.00;;;;;;5074651;28;20450;-73
2022/02/18 10:20:41;;;;;;;23.73;22.30;;;16.50;65.70;;;;;;5073488;28;20474;-73
2022/02/18 10:23:11;;;;;;;24.33;22.90;;;16.50;65.60;;;;;;5074724;28;20525;-73
2022/02/18 10:25:39;;;;;;;23.00;21.70;;;16.70;65.00;;;;;;5074266;28;20482;-73
2022/02/18 10:28:11;;;;;;;24.30;22.80;;;16.80;64.60;;;;;;5074543;28;20590;-73
2022/02/18 10:30:39;;;;;;;24.03;22.40;;;16.90;64.40;;;;;;5074202;28;20565;-73
2022/02/18 10:33:19;;;;;;;23.93;22.57;;;17.10;63.90;;;;;;5074497;28;20534;-73
2022/02/18 10:35:47;;;;;;;24.00;22.20;;;17.30;63.40;;;;;;5074483;28;20450;-73
2022/02/18 10:38:16;;;;;;;23.27;21.90;;;17.40;63.10;;;;;;5074281;28;20450;-73
2022/02/18 10:40:47;;;;;;;23.20;21.90;;;17.40;63.10;;;;;;5074060;28;20470;-73
2022/02/18 10:43:18;;;;;;;24.30;22.90;;;17.40;63.30;;;;;;5074240;28;20576;-73
2022/02/18 10:45:59;;;;;;;25.10;23.63;;;17.40;63.10;;;;;;5073985;28;20524;-73
2022/02/18 10:48:27;;;;;;;23.70;22.23;;;17.60;62.70;;;;;;5074147;28;20948;-73
2022/02/18 10:51:11;;;;;;;24.30;22.80;;;17.70;62.40;;;;;;5073937;28;20529;-73
2022/02/18 10:53:43;;;;;;;23.53;22.00;;;17.70;62.60;;;;;;5074136;28;20451;-73
2022/02/18 10:56:12;;;;;;;22.37;20.93;;;17.60;62.60;;;;;;5074048;28;20474;-73
2022/02/18 10:58:40;;;;;;;22.93;21.53;;;17.80;62.50;;;;;;5073800;28;20580;-73
2022/02/18 11:01:12;;;;;;;23.40;22.10;;;17.80;62.10;;;;;;5073592;28;20536;-73
2022/02/18 11:03:41;;;;;;;24.57;23.27;;;17.90;62.10;;;;;;5073748;28;20450;-73
2022/02/18 11:06:13;;;;;;;22.60;21.17;;;18.10;61.50;;;;;;5073715;28;20505;-73
2022/02/18 11:08:48;;;;;;;23.10;21.47;;;18.20;61.10;;;;;;5073681;28;20446;-73
2022/02/18 11:11:16;;;;;;;24.20;22.80;;;18.20;61.00;;;;;;5073544;28;20517;-73
2022/02/18 11:13:44;;;;;;;22.10;20.83;;;18.30;60.90;;;;;;5073572;28;20542;-73
2022/02/18 11:16:12;;;;;;;24.10;22.70;;;18.20;60.10;;;;;;5073434;28;20920;-73
2022/02/18 11:18:39;;;;;;;24.03;22.73;;;18.20;60.30;;;;;;5073370;28;20454;-73
2022/02/18 11:21:07;;;;;;;22.27;20.97;;;18.20;60.50;;;;;;5073230;28;20475;-73
2022/02/18 11:23:35;;;;;;;22.93;21.57;;;18.30;60.50;;;;;;5073503;28;20512;-73
2022/02/18 11:26:03;;;;;;;22.27;21.07;;;18.30;60.30;;;;;;5073005;28;20565;-73
2022/02/18 11:28:31;;;;;;;22.70;21.30;;;18.40;59.80;;;;;;5073173;28;20505;-73
2022/02/18 11:31:02;;;;;;;25.50;24.20;;;18.50;59.70;;;;;;5072665;28;20545;-73
2022/02/18 11:33:54;;;;;;;22.70;21.20;;;18.30;59.20;;;;;;5073264;28;20461;-73
2022/02/18 11:36:37;;;;;;;22.43;21.00;;;18.20;59.40;;;;;;5073136;28;20534;-73
2022/02/18 11:39:40;;;;;;;23.07;21.43;;;18.10;58.70;;;;;;5073056;28;20462;-73
2022/02/18 11:42:17;;;;;;;23.60;22.30;;;18.00;58.70;;;;;;5072991;28;20502;-73
2022/02/18 11:44:45;;;;;;;23.57;22.10;;;17.80;58.90;;;;;;5072894;28;20496;-73
2022/02/18 11:47:13;;;;;;;23.90;22.37;;;17.90;58.90;;;;;;5072891;28;20453;-73
2022/02/18 11:49:41;;;;;;;23.50;21.70;;;18.00;58.80;;;;;;5072617;28;20541;-73
2022/02/18 11:52:10;;;;;;;22.63;21.13;;;18.00;58.60;;;;;;5072923;28;20474;-73
2022/02/18 11:54:37;;;;;;;23.70;22.10;;;18.10;58.20;;;;;;5072942;28;20450;-73
2022/02/18 11:57:05;;;;;;;23.63;22.13;;;18.00;58.60;;;;;;5072803;28;20944;-73
2022/02/18 12:00:01;;;;;;;24.97;23.17;;;18.10;58.50;;;;;;5072580;28;21017;-73
2022/02/18 12:02:39;;;;;;;23.53;22.23;;;18.30;58.40;;;;;;5026340;28;20544;-73
2022/02/18 12:05:09;;;;;;;23.90;22.40;;;18.40;58.20;;;;;;5072758;28;20485;-73
2022/02/18 12:07:37;;;;;;;24.13;22.33;;;18.60;57.80;;;;;;5072783;28;20462;-73
2022/02/18 12:10:22;;;;;;;23.60;22.20;;;18.60;57.80;;;;;;5072478;28;20508;-73
2022/02/18 12:12:49;;;;;;;24.50;22.67;;;18.70;57.80;;;;;;5072710;28;20485;-73
2022/02/18 12:15:26;;;;;;;23.97;22.57;;;18.80;57.40;;;;;;5072577;28;20450;-73
2022/02/18 12:18:03;;;;;;;23.97;22.27;;;18.90;57.20;;;;;;5072553;28;20442;-73
2022/02/18 12:20:32;;;;;;;26.57;24.60;;;18.90;57.00;;;;;;5072400;28;20520;-73
2022/02/18 12:23:20;;;;;;;23.37;21.97;;;18.90;56.90;;;;;;5072471;28;20451;-73
2022/02/18 12:25:47;;;;;;;25.17;23.47;;;18.80;56.70;;;;;;5072386;28;20975;-73
2022/02/18 12:28:21;;;;;;;23.70;22.30;;;18.60;56.80;;;;;;5072529;28;20541;-73
2022/02/18 12:30:57;;;;;;;23.10;21.70;;;18.40;57.30;;;;;;5072255;28;20882;-73
2022/02/18 12:33:24;;;;;;;23.30;21.80;;;18.30;57.60;;;;;;5072498;28;20969;-73
2022/02/18 12:35:51;;;;;;;24.17;22.50;;;18.40;57.50;;;;;;5072284;28;20446;-73